Retour à l'actu

LFPG

METAR

LFPG 200830Z 34008KT CAVOK 03/01 Q1032 NOSIG

TAF

LFPG 200500Z
  • | 2006/2112 33007KT CAVOK TX06/2013Z TNM01/2106Z
  • | PROB40 2103/2106 3000 BR
  • | PROB30 TEMPO 2103/2110 BKN006